createdAt,value
2022-11-10T00:01:42.026Z,7.30
2022-11-10T00:13:19.851Z,7.30
2022-11-10T02:20:29.985Z,7.70
2022-11-10T02:32:19.152Z,7.80
2022-11-10T03:06:07.710Z,7.70
2022-11-10T03:52:12.038Z,7.80
2022-11-10T04:03:58.112Z,7.80
2022-11-10T04:32:02.344Z,7.70
2022-11-10T04:35:20.763Z,7.80
2022-11-10T04:42:50.406Z,7.90
2022-11-10T04:45:50.677Z,7.80
2022-11-10T04:48:50.010Z,7.90
2022-11-10T04:51:39.284Z,7.80
2022-11-10T04:54:26.443Z,7.90
2022-11-10T04:57:13.349Z,7.90
2022-11-10T05:00:00.047Z,7.80
2022-11-10T05:02:48.689Z,7.90
2022-11-10T05:05:36.250Z,7.80
2022-11-10T05:08:22.873Z,7.80
2022-11-10T05:11:10.200Z,7.80
2022-11-10T05:13:57.148Z,7.80
2022-11-10T05:16:50.891Z,7.80
2022-11-10T05:19:43.479Z,7.80
2022-11-10T05:22:30.421Z,7.80
2022-11-10T05:25:17.253Z,7.80
2022-11-10T05:28:04.660Z,7.90
2022-11-10T05:30:51.632Z,7.90
2022-11-10T05:33:39.438Z,7.90
2022-11-10T05:36:27.832Z,7.90
2022-11-10T05:39:14.547Z,7.90
2022-11-10T05:42:01.142Z,7.90
2022-11-10T05:44:47.724Z,8.00
2022-11-10T05:47:36.957Z,7.90
2022-11-10T05:50:25.098Z,7.90
2022-11-10T05:53:13.381Z,7.90
2022-11-10T05:55:59.985Z,7.90
2022-11-10T05:58:47.043Z,7.90
2022-11-10T06:01:34.044Z,7.90
2022-11-10T06:04:21.056Z,8.00
2022-11-10T06:07:08.173Z,8.00
2022-11-10T06:09:56.365Z,8.00
2022-11-10T06:12:43.146Z,8.00
2022-11-10T06:15:29.797Z,8.00
2022-11-10T06:18:16.617Z,8.10
2022-11-10T06:21:03.428Z,8.00
2022-11-10T06:23:50.124Z,8.10
2022-11-10T06:26:38.202Z,8.10
2022-11-10T06:29:27.012Z,8.00
2022-11-10T06:32:14.100Z,8.10
2022-11-10T06:35:01.105Z,8.10
2022-11-10T06:37:48.205Z,8.10
2022-11-10T06:40:35.270Z,8.10
2022-11-10T06:43:23.635Z,8.10
2022-11-10T06:46:10.676Z,8.10
2022-11-10T06:48:57.249Z,8.10
2022-11-10T06:51:44.008Z,8.20
2022-11-10T06:54:30.668Z,8.20
2022-11-10T06:57:17.315Z,8.20
2022-11-10T07:00:06.901Z,8.20
2022-11-10T07:03:00.969Z,8.30
2022-11-10T07:05:47.784Z,8.30
2022-11-10T07:08:34.536Z,8.30
2022-11-10T07:11:21.287Z,8.30
2022-11-10T07:14:08.304Z,8.30
2022-11-10T07:16:56.343Z,8.30
2022-11-10T07:19:50.084Z,8.40
2022-11-10T07:22:37.611Z,8.40
2022-11-10T07:25:24.104Z,8.40
2022-11-10T07:28:11.685Z,8.50
2022-11-10T07:30:58.877Z,8.50
2022-11-10T07:33:54.403Z,8.60
2022-11-10T07:36:41.640Z,8.60
2022-11-10T07:39:28.686Z,8.60
2022-11-10T07:42:18.811Z,8.60
2022-11-10T07:45:09.379Z,8.70
2022-11-10T07:48:00.709Z,8.70
2022-11-10T07:50:49.254Z,8.70
2022-11-10T07:53:44.510Z,8.70
2022-11-10T07:56:31.506Z,8.70
2022-11-10T07:59:18.077Z,8.80
2022-11-10T08:02:04.772Z,8.80
2022-11-10T08:04:51.580Z,8.80
2022-11-10T08:07:41.258Z,8.90
2022-11-10T08:10:28.369Z,8.90
2022-11-10T08:13:19.010Z,8.90
2022-11-10T08:16:06.516Z,8.90
2022-11-10T08:18:53.417Z,9.00
2022-11-10T08:21:40.001Z,9.00
2022-11-10T08:24:28.467Z,9.00
2022-11-10T08:27:15.423Z,9.10
2022-11-10T08:30:03.268Z,9.10
2022-11-10T08:32:50.253Z,9.10
2022-11-10T08:35:40.472Z,9.20
2022-11-10T08:38:27.156Z,9.30
2022-11-10T08:41:15.949Z,9.30
2022-11-10T08:44:02.904Z,9.30
2022-11-10T08:46:49.659Z,9.30
2022-11-10T08:49:36.571Z,9.40
2022-11-10T08:52:23.367Z,9.40
2022-11-10T08:55:10.503Z,9.40
2022-11-10T08:58:02.630Z,9.40
2022-11-10T09:00:50.233Z,9.40
2022-11-10T09:03:37.122Z,9.50
2022-11-10T09:06:23.957Z,9.50
2022-11-10T09:09:10.884Z,9.50
2022-11-10T09:11:57.641Z,9.60
2022-11-10T09:14:45.695Z,9.60
2022-11-10T09:17:33.549Z,9.60
2022-11-10T09:20:20.577Z,9.60
2022-11-10T09:23:08.806Z,9.60
2022-11-10T09:25:57.208Z,9.70
2022-11-10T09:28:44.157Z,9.70
2022-11-10T09:31:32.287Z,9.70
2022-11-10T09:34:19.156Z,9.80
2022-11-10T09:37:05.998Z,9.80
2022-11-10T09:39:53.037Z,9.80
2022-11-10T09:42:42.739Z,9.90
2022-11-10T09:45:38.914Z,9.90
2022-11-10T09:48:31.805Z,10.00
2022-11-10T09:51:22.042Z,10.00
2022-11-10T09:54:25.245Z,10.00
2022-11-10T09:57:15.561Z,10.10
2022-11-10T10:00:02.143Z,10.10
2022-11-10T10:02:55.033Z,10.00
2022-11-10T10:05:55.781Z,10.00
2022-11-10T10:08:53.483Z,10.10
2022-11-10T10:11:53.316Z,10.20
2022-11-10T10:14:52.552Z,10.20
2022-11-10T10:17:49.504Z,10.20
2022-11-10T10:20:47.211Z,10.30
2022-11-10T10:26:50.575Z,10.40
2022-11-10T10:29:41.033Z,10.40
2022-11-10T10:32:28.519Z,10.40
2022-11-10T10:35:16.799Z,10.40
2022-11-10T10:38:05.604Z,10.40
2022-11-10T10:40:57.924Z,10.50
2022-11-10T10:43:49.030Z,10.50
2022-11-10T10:46:46.229Z,10.60
2022-11-10T10:49:34.649Z,10.70
2022-11-10T10:52:25.084Z,10.70
2022-11-10T10:55:14.360Z,10.80
2022-11-10T10:58:04.439Z,10.80
2022-11-10T11:00:53.598Z,10.80
2022-11-10T11:03:43.859Z,10.80
2022-11-10T11:06:32.155Z,10.90
2022-11-10T11:09:28.803Z,10.90
2022-11-10T11:12:28.297Z,10.90
2022-11-10T11:15:25.840Z,10.90
2022-11-10T11:18:16.052Z,11.00
2022-11-10T11:21:08.341Z,11.10
2022-11-10T11:24:06.395Z,11.10
2022-11-10T11:27:00.599Z,11.00
2022-11-10T11:30:06.035Z,11.00
2022-11-10T11:33:06.863Z,11.10
2022-11-10T11:36:02.796Z,11.00
2022-11-10T11:38:57.291Z,11.00
2022-11-10T11:41:49.502Z,11.10
2022-11-10T11:44:50.518Z,11.10
2022-11-10T11:48:05.821Z,11.10
2022-11-10T11:50:57.785Z,11.10
2022-11-10T11:54:00.941Z,11.20
2022-11-10T11:56:51.874Z,11.20
2022-11-10T12:00:07.027Z,11.30
2022-11-10T12:03:11.388Z,11.30
2022-11-10T12:06:23.814Z,11.30
2022-11-10T12:09:18.680Z,11.30
2022-11-10T12:12:27.168Z,11.40
2022-11-10T12:15:26.180Z,11.40
2022-11-10T12:18:26.454Z,11.40
2022-11-10T12:21:25.994Z,11.40
2022-11-10T12:24:27.350Z,11.40
2022-11-10T12:27:18.997Z,11.30
2022-11-10T12:30:10.919Z,11.30
2022-11-10T12:33:03.627Z,11.30
2022-11-10T12:35:53.035Z,11.30
2022-11-10T12:38:59.682Z,11.30
2022-11-10T12:41:50.901Z,11.30
2022-11-10T12:44:44.655Z,11.30
2022-11-10T12:47:48.406Z,11.30
2022-11-10T12:50:50.646Z,11.30
2022-11-10T12:53:40.947Z,11.40
2022-11-10T12:56:35.329Z,11.40
2022-11-10T13:00:00.566Z,11.40
2022-11-10T13:02:48.213Z,11.40
2022-11-10T13:05:38.822Z,11.30
2022-11-10T13:08:35.614Z,11.30
2022-11-10T13:11:27.351Z,11.10
2022-11-10T13:14:33.389Z,11.10
2022-11-10T13:17:55.081Z,11.00
2022-11-10T13:21:00.903Z,11.00
2022-11-10T13:24:24.532Z,11.00
2022-11-10T13:27:34.706Z,11.10
2022-11-10T13:30:45.607Z,11.10
2022-11-10T13:33:37.143Z,11.00
2022-11-10T13:36:38.352Z,10.90
2022-11-10T13:39:27.625Z,10.90
2022-11-10T13:42:19.978Z,10.90
2022-11-10T13:45:29.799Z,11.00
2022-11-10T13:48:49.953Z,10.90
2022-11-10T13:51:45.389Z,10.90
2022-11-10T13:54:54.975Z,10.90
2022-11-10T13:57:53.344Z,10.80
2022-11-10T14:00:49.149Z,10.80
2022-11-10T14:04:09.588Z,10.80
2022-11-10T14:07:14.417Z,10.80
2022-11-10T14:13:13.949Z,10.80
2022-11-10T14:16:01.174Z,10.80
2022-11-10T14:18:55.624Z,10.70
2022-11-10T14:21:47.367Z,10.60
2022-11-10T14:24:54.096Z,10.60
2022-11-10T14:27:41.200Z,10.50
2022-11-10T14:30:29.602Z,10.50
2022-11-10T14:33:16.831Z,10.40
2022-11-10T14:36:06.307Z,10.30
2022-11-10T14:42:20.293Z,10.20
2022-11-10T14:45:09.143Z,10.10
2022-11-10T14:47:57.788Z,10.10
2022-11-10T14:50:45.224Z,9.90
2022-11-10T14:53:35.899Z,9.90
2022-11-10T14:56:37.598Z,9.80
2022-11-10T14:59:29.700Z,9.80
2022-11-10T15:02:19.917Z,9.70
2022-11-10T15:05:07.172Z,9.60
2022-11-10T15:08:02.797Z,9.50
2022-11-10T15:10:53.390Z,9.50
2022-11-10T15:13:40.845Z,9.40
2022-11-10T15:19:56.352Z,9.30
2022-11-10T15:22:43.448Z,9.30
2022-11-10T15:25:37.057Z,9.30
2022-11-10T15:32:25.616Z,9.20
2022-11-10T15:35:38.134Z,9.30
2022-11-10T15:38:35.585Z,9.30
2022-11-10T15:41:27.697Z,9.30
2022-11-10T15:44:20.666Z,9.30
2022-11-10T15:47:08.070Z,9.40
2022-11-10T15:49:56.230Z,9.30
2022-11-10T15:52:43.343Z,9.20
2022-11-10T15:55:55.521Z,9.20
2022-11-10T15:58:42.967Z,9.10
2022-11-10T16:01:31.697Z,9.00
2022-11-10T16:04:18.465Z,9.00
2022-11-10T16:07:07.093Z,9.00
2022-11-10T16:09:53.666Z,9.00
2022-11-10T16:12:40.750Z,9.00
2022-11-10T16:15:27.418Z,9.00
2022-11-10T16:18:15.849Z,9.00
2022-11-10T16:21:02.836Z,9.00
2022-11-10T16:23:53.047Z,9.00
2022-11-10T16:26:40.259Z,9.20
2022-11-10T16:29:30.642Z,9.10
2022-11-10T16:32:17.849Z,9.20
2022-11-10T16:35:04.969Z,9.20
2022-11-10T16:37:51.829Z,9.20
2022-11-10T16:40:40.080Z,9.20
2022-11-10T16:43:28.212Z,9.30
2022-11-10T16:46:31.035Z,9.30
2022-11-10T16:49:27.602Z,9.30
2022-11-10T16:52:16.566Z,9.30
2022-11-10T16:55:04.026Z,9.20
2022-11-10T16:58:00.998Z,9.20
2022-11-10T17:00:49.465Z,9.20
2022-11-10T17:03:40.258Z,9.20
2022-11-10T17:06:29.205Z,9.20
2022-11-10T17:09:19.495Z,9.20
2022-11-10T17:12:07.212Z,9.20
2022-11-10T17:15:10.886Z,9.10
2022-11-10T17:18:02.168Z,9.10
2022-11-10T17:20:53.453Z,9.00
2022-11-10T17:23:40.750Z,9.00
2022-11-10T17:26:27.882Z,8.90
2022-11-10T17:29:19.663Z,8.80
2022-11-10T17:32:43.127Z,8.80
2022-11-10T17:35:32.343Z,8.80
2022-11-10T17:38:25.257Z,8.70
2022-11-10T17:41:17.172Z,8.70
2022-11-10T17:44:03.940Z,8.60
2022-11-10T17:46:50.684Z,8.60
2022-11-10T17:49:42.782Z,8.60
2022-11-10T17:52:29.851Z,8.60
2022-11-10T17:55:20.699Z,8.40
2022-11-10T17:58:07.768Z,8.40
2022-11-10T18:00:55.658Z,8.40
2022-11-10T18:03:42.553Z,8.30
2022-11-10T18:06:34.249Z,8.20
2022-11-10T18:09:24.311Z,8.20
2022-11-10T18:12:13.487Z,8.10
2022-11-10T18:15:00.406Z,8.10
2022-11-10T18:17:47.542Z,8.00
2022-11-10T18:20:34.552Z,8.00
2022-11-10T18:23:25.058Z,8.00
2022-11-10T18:26:13.202Z,8.00
2022-11-10T18:29:00.273Z,8.00
2022-11-10T18:31:47.120Z,8.00
2022-11-10T18:34:34.063Z,8.00
2022-11-10T18:37:21.133Z,8.00
2022-11-10T18:40:11.222Z,7.90
2022-11-10T18:43:01.755Z,7.80
2022-11-10T18:45:54.059Z,7.80
2022-11-10T18:48:43.929Z,7.70
2022-11-10T18:51:32.212Z,7.70
2022-11-10T18:54:19.454Z,7.70
2022-11-10T18:57:07.833Z,7.60
2022-11-10T18:59:54.759Z,7.60
2022-11-10T19:02:43.312Z,7.60
2022-11-10T19:05:31.169Z,7.60
2022-11-10T19:08:26.048Z,7.50
2022-11-10T19:11:16.298Z,7.50
2022-11-10T19:14:07.871Z,7.50
2022-11-10T19:16:55.570Z,7.40
2022-11-10T19:19:43.508Z,7.40
2022-11-10T19:22:58.462Z,7.30
2022-11-10T19:25:45.389Z,7.30
2022-11-10T19:28:58.645Z,7.30
2022-11-10T19:31:55.839Z,7.20
2022-11-10T19:34:43.320Z,7.30
2022-11-10T19:41:34.065Z,7.20
2022-11-10T19:44:21.144Z,7.20
2022-11-10T19:47:09.709Z,7.20
2022-11-10T19:50:01.762Z,7.30
2022-11-10T19:52:48.873Z,7.10
2022-11-10T19:55:38.908Z,7.10
2022-11-10T19:58:27.475Z,7.10
2022-11-10T20:01:22.773Z,7.10
2022-11-10T20:04:19.869Z,7.00
2022-11-10T20:07:24.518Z,7.10
2022-11-10T20:10:13.603Z,7.00
2022-11-10T20:13:04.881Z,7.00
2022-11-10T20:16:03.950Z,7.00
2022-11-10T20:18:52.144Z,7.00
2022-11-10T20:21:40.381Z,6.90
2022-11-10T20:24:52.378Z,7.00
2022-11-10T20:27:45.559Z,6.90
2022-11-10T20:30:33.474Z,6.80
2022-11-10T20:33:37.752Z,6.80
2022-11-10T20:39:31.927Z,6.80
2022-11-10T20:42:18.775Z,6.70
2022-11-10T20:45:06.795Z,6.80
2022-11-10T20:47:53.749Z,6.70
2022-11-10T20:50:41.879Z,6.70
2022-11-10T20:53:39.018Z,6.70
2022-11-10T20:56:29.848Z,6.60
2022-11-10T20:59:21.114Z,6.60
2022-11-10T21:02:13.360Z,6.60
2022-11-10T21:05:29.354Z,6.70
2022-11-10T21:08:16.594Z,6.70
2022-11-10T21:11:09.397Z,6.60
2022-11-10T21:13:57.124Z,6.60
2022-11-10T21:16:44.462Z,6.70
2022-11-10T21:19:53.680Z,6.60
2022-11-10T21:23:11.762Z,6.60
2022-11-10T21:26:02.205Z,6.40
2022-11-10T21:28:55.069Z,6.60
2022-11-10T21:32:28.550Z,6.20
2022-11-10T21:35:17.691Z,6.50
2022-11-10T21:38:04.994Z,6.50
2022-11-10T21:40:55.626Z,6.50
2022-11-10T21:43:46.914Z,6.40
2022-11-10T21:46:34.576Z,6.40
2022-11-10T21:49:22.563Z,6.30
2022-11-10T21:52:35.494Z,6.30
2022-11-10T21:55:22.604Z,6.40
2022-11-10T21:58:09.829Z,6.20
2022-11-10T22:01:02.348Z,6.10
2022-11-10T22:03:50.211Z,6.40
2022-11-10T22:06:54.238Z,6.10
2022-11-10T22:10:00.028Z,6.00
2022-11-10T22:13:03.959Z,6.00
2022-11-10T22:16:11.576Z,6.10
2022-11-10T22:18:58.888Z,6.00
2022-11-10T22:21:45.833Z,6.00
2022-11-10T22:24:46.573Z,5.90
2022-11-10T22:27:33.619Z,6.00
2022-11-10T22:30:20.566Z,5.90
2022-11-10T22:36:25.394Z,5.90
2022-11-10T22:39:12.426Z,5.90
2022-11-10T22:42:22.477Z,5.90
2022-11-10T22:49:04.124Z,5.80
2022-11-10T22:51:52.663Z,5.90
2022-11-10T22:57:42.005Z,5.80
2022-11-10T23:04:01.663Z,5.80
2022-11-10T23:06:58.350Z,5.80
2022-11-10T23:09:51.578Z,6.00
2022-11-10T23:12:38.563Z,5.80
2022-11-10T23:15:58.814Z,5.80
2022-11-10T23:18:52.399Z,5.80
2022-11-10T23:21:53.411Z,5.80
2022-11-10T23:24:54.235Z,5.40
2022-11-10T23:27:53.525Z,6.00
2022-11-10T23:31:04.430Z,5.80
2022-11-10T23:34:00.529Z,5.80
2022-11-10T23:36:47.665Z,5.80
2022-11-10T23:39:34.973Z,5.80
2022-11-10T23:42:40.511Z,5.90
2022-11-10T23:49:17.754Z,5.80
2022-11-10T23:56:12.707Z,6.10
2022-11-10T23:59:00.693Z,6.00
